createdAt,value
2022-09-18T00:01:37.121Z,47.91
2022-09-18T00:04:08.119Z,48.02
2022-09-18T00:06:40.411Z,47.56
2022-09-18T00:09:10.851Z,47.70
2022-09-18T00:11:42.424Z,47.64
2022-09-18T00:14:13.995Z,47.76
2022-09-18T00:16:43.092Z,47.73
2022-09-18T00:19:12.151Z,47.84
2022-09-18T00:21:44.279Z,47.72
2022-09-18T00:24:12.918Z,47.69
2022-09-18T00:26:41.563Z,47.92
2022-09-18T00:29:09.534Z,47.89
2022-09-18T00:31:38.257Z,47.97
2022-09-18T00:34:09.011Z,48.30
2022-09-18T00:36:38.606Z,48.17
2022-09-18T00:39:08.838Z,48.15
2022-09-18T00:41:39.022Z,48.40
2022-09-18T00:44:36.915Z,48.32
2022-09-18T00:47:15.522Z,48.47
2022-09-18T00:49:48.214Z,48.41
2022-09-18T00:52:19.436Z,48.31
2022-09-18T00:54:52.394Z,48.56
2022-09-18T00:57:24.249Z,48.35
2022-09-18T00:59:54.156Z,48.16
2022-09-18T01:02:22.289Z,48.38
2022-09-18T01:04:51.587Z,48.35
2022-09-18T01:07:34.133Z,48.63
2022-09-18T01:10:19.856Z,48.71
2022-09-18T01:12:56.041Z,48.53
2022-09-18T01:15:32.360Z,48.75
2022-09-18T01:18:11.120Z,48.64
2022-09-18T01:21:03.651Z,48.62
2022-09-18T01:24:02.150Z,48.65
2022-09-18T01:26:44.966Z,48.67
2022-09-18T01:29:23.719Z,48.53
2022-09-18T01:31:56.953Z,48.56
2022-09-18T01:34:30.890Z,48.48
2022-09-18T01:37:05.723Z,48.50
2022-09-18T01:39:39.582Z,48.68
2022-09-18T01:42:09.875Z,48.61
2022-09-18T01:44:42.466Z,48.95
2022-09-18T01:47:14.172Z,48.99
2022-09-18T01:49:47.441Z,48.72
2022-09-18T01:52:19.396Z,48.85
2022-09-18T01:54:50.059Z,49.37
2022-09-18T01:57:23.705Z,48.83
2022-09-18T01:59:58.487Z,49.02
2022-09-18T02:02:32.547Z,48.90
2022-09-18T02:05:03.814Z,49.28
2022-09-18T02:07:40.902Z,49.34
2022-09-18T02:10:09.525Z,49.61
2022-09-18T02:12:42.192Z,48.94
2022-09-18T02:15:14.894Z,49.33
2022-09-18T02:17:48.212Z,49.03
2022-09-18T02:20:20.839Z,49.12
2022-09-18T02:22:52.884Z,49.30
2022-09-18T02:25:27.258Z,49.44
2022-09-18T02:27:57.378Z,48.94
2022-09-18T02:30:28.015Z,49.18
2022-09-18T02:32:56.980Z,49.29
2022-09-18T02:35:31.368Z,49.02
2022-09-18T02:38:03.866Z,49.19
2022-09-18T02:40:47.802Z,49.49
2022-09-18T02:43:29.973Z,49.51
2022-09-18T02:46:08.934Z,49.56
2022-09-18T02:48:49.125Z,49.50
2022-09-18T02:51:28.839Z,49.64
2022-09-18T02:54:03.067Z,49.61
2022-09-18T02:56:37.527Z,49.83
2022-09-18T02:59:11.328Z,49.61
2022-09-18T03:01:43.795Z,49.61
2022-09-18T03:04:13.992Z,49.65
2022-09-18T03:06:42.546Z,49.61
2022-09-18T03:09:10.480Z,49.56
2022-09-18T03:11:38.401Z,49.63
2022-09-18T03:14:06.515Z,49.80
2022-09-18T03:16:34.819Z,49.86
2022-09-18T03:19:04.394Z,49.65
2022-09-18T03:21:32.400Z,49.61
2022-09-18T03:24:00.459Z,49.76
2022-09-18T03:26:28.634Z,49.78
2022-09-18T03:28:56.510Z,49.80
2022-09-18T03:31:25.571Z,49.89
2022-09-18T03:33:53.592Z,50.11
2022-09-18T03:36:22.960Z,50.00
2022-09-18T03:38:51.079Z,50.00
2022-09-18T03:41:19.295Z,49.98
2022-09-18T03:43:47.260Z,50.23
2022-09-18T03:46:15.508Z,49.87
2022-09-18T03:48:43.873Z,50.11
2022-09-18T03:51:11.827Z,49.95
2022-09-18T03:53:41.200Z,50.14
2022-09-18T03:56:09.204Z,50.01
2022-09-18T03:58:37.320Z,50.08
2022-09-18T04:01:06.998Z,50.11
2022-09-18T04:03:35.565Z,50.21
2022-09-18T04:06:03.510Z,50.21
2022-09-18T04:08:31.500Z,50.18
2022-09-18T04:11:01.022Z,50.28
2022-09-18T04:13:29.926Z,50.08
2022-09-18T04:15:58.031Z,50.23
2022-09-18T04:18:26.297Z,50.53
2022-09-18T04:20:54.277Z,50.61
2022-09-18T04:23:22.214Z,50.61
2022-09-18T04:25:50.284Z,50.31
2022-09-18T04:28:20.212Z,50.44
2022-09-18T04:30:49.066Z,50.10
2022-09-18T04:33:17.059Z,49.98
2022-09-18T04:35:45.023Z,50.49
2022-09-18T04:38:13.168Z,50.48
2022-09-18T04:40:41.109Z,50.34
2022-09-18T04:43:10.450Z,50.50
2022-09-18T04:45:39.848Z,50.47
2022-09-18T04:48:07.962Z,50.46
2022-09-18T04:50:36.115Z,50.32
2022-09-18T04:53:04.135Z,50.23
2022-09-18T04:55:32.136Z,50.61
2022-09-18T04:57:59.985Z,50.43
2022-09-18T05:00:28.777Z,50.05
2022-09-18T05:02:58.337Z,50.56
2022-09-18T05:05:26.371Z,50.55
2022-09-18T05:07:54.354Z,50.38
2022-09-18T05:10:22.390Z,50.45
2022-09-18T05:12:50.385Z,50.44
2022-09-18T05:15:18.976Z,50.42
2022-09-18T05:17:46.892Z,50.51
2022-09-18T05:20:16.757Z,50.81
2022-09-18T05:22:47.141Z,50.57
2022-09-18T05:25:15.356Z,50.72
2022-09-18T05:27:43.426Z,50.83
2022-09-18T05:30:12.160Z,50.68
2022-09-18T05:32:40.144Z,50.96
2022-09-18T05:35:08.432Z,51.16
2022-09-18T05:37:37.705Z,50.95
2022-09-18T05:40:06.470Z,50.61
2022-09-18T05:42:34.529Z,50.91
2022-09-18T05:45:02.471Z,50.90
2022-09-18T05:47:32.482Z,50.85
2022-09-18T05:50:00.646Z,51.15
2022-09-18T05:52:28.707Z,51.12
2022-09-18T05:54:58.078Z,51.00
2022-09-18T05:57:26.230Z,50.82
2022-09-18T05:59:54.136Z,50.80
2022-09-18T06:02:22.279Z,50.72
2022-09-18T06:04:50.367Z,50.82
2022-09-18T06:07:18.680Z,50.93
2022-09-18T06:09:46.606Z,51.05
2022-09-18T06:12:15.923Z,51.15
2022-09-18T06:14:44.020Z,50.94
2022-09-18T06:17:12.003Z,51.23
2022-09-18T06:19:39.946Z,51.39
2022-09-18T06:22:07.880Z,51.35
2022-09-18T06:24:35.753Z,51.22
2022-09-18T06:27:03.874Z,51.17
2022-09-18T06:29:33.255Z,51.13
2022-09-18T06:32:01.310Z,51.13
2022-09-18T06:34:29.495Z,51.11
2022-09-18T06:36:57.622Z,51.09
2022-09-18T06:39:25.587Z,51.21
2022-09-18T06:41:53.513Z,51.11
2022-09-18T06:44:21.478Z,50.92
2022-09-18T06:46:51.302Z,51.22
2022-09-18T06:49:19.546Z,51.01
2022-09-18T06:51:48.675Z,50.93
2022-09-18T06:54:17.081Z,50.86
2022-09-18T06:56:46.883Z,50.78
2022-09-18T06:59:15.017Z,50.64
2022-09-18T07:01:43.207Z,50.55
2022-09-18T07:04:12.905Z,50.78
2022-09-18T07:06:40.910Z,50.74
2022-09-18T07:09:09.780Z,50.72
2022-09-18T07:11:37.702Z,51.11
2022-09-18T07:14:06.794Z,50.72
2022-09-18T07:16:34.916Z,50.52
2022-09-18T07:19:03.218Z,50.63
2022-09-18T07:21:32.693Z,50.44
2022-09-18T07:24:00.843Z,50.47
2022-09-18T07:26:28.921Z,50.45
2022-09-18T07:28:56.833Z,50.57
2022-09-18T07:31:24.786Z,50.38
2022-09-18T07:33:53.301Z,50.39
2022-09-18T07:36:22.000Z,50.31
2022-09-18T07:38:52.873Z,50.04
2022-09-18T07:41:21.607Z,50.00
2022-09-18T07:43:50.868Z,50.10
2022-09-18T07:46:18.848Z,50.15
2022-09-18T07:48:46.979Z,50.19
2022-09-18T07:51:15.038Z,50.26
2022-09-18T07:53:43.116Z,49.93
2022-09-18T07:56:13.737Z,50.02
2022-09-18T07:58:41.935Z,50.15
2022-09-18T08:01:09.901Z,50.11
2022-09-18T08:03:41.355Z,50.09
2022-09-18T08:06:09.877Z,50.25
2022-09-18T08:08:38.020Z,50.30
2022-09-18T08:11:06.180Z,50.83
2022-09-18T08:13:36.004Z,50.34
2022-09-18T08:16:05.015Z,50.12
2022-09-18T08:18:33.103Z,49.81
2022-09-18T08:21:01.263Z,49.96
2022-09-18T08:23:29.524Z,49.68
2022-09-18T08:25:57.886Z,49.75
2022-09-18T08:28:25.924Z,49.30
2022-09-18T08:30:55.906Z,49.41
2022-09-18T08:33:24.595Z,49.35
2022-09-18T08:35:52.594Z,49.35
2022-09-18T08:38:20.700Z,49.29
2022-09-18T08:41:08.200Z,49.02
2022-09-18T08:43:52.421Z,48.84
2022-09-18T08:46:26.915Z,48.63
2022-09-18T08:49:02.477Z,48.61
2022-09-18T08:51:34.671Z,48.62
2022-09-18T08:54:19.914Z,48.70
2022-09-18T08:56:48.952Z,48.66
2022-09-18T08:59:31.084Z,48.45
2022-09-18T09:02:11.923Z,48.27
2022-09-18T09:04:40.258Z,48.15
2022-09-18T09:07:29.408Z,48.12
2022-09-18T09:10:13.238Z,47.59
2022-09-18T09:12:48.475Z,47.25
2022-09-18T09:15:31.007Z,46.86
2022-09-18T09:18:12.516Z,46.95
2022-09-18T09:20:50.678Z,47.17
2022-09-18T09:23:24.029Z,47.09
2022-09-18T09:26:01.688Z,46.78
2022-09-18T09:28:35.166Z,47.29
2022-09-18T09:31:06.045Z,46.82
2022-09-18T09:33:40.493Z,46.44
2022-09-18T09:36:11.482Z,46.68
2022-09-18T09:38:47.490Z,46.47
2022-09-18T09:41:24.290Z,46.74
2022-09-18T09:44:01.794Z,46.66
2022-09-18T09:46:45.452Z,45.95
2022-09-18T09:49:20.022Z,45.54
2022-09-18T09:51:54.698Z,45.60
2022-09-18T09:54:22.960Z,44.92
2022-09-18T09:56:58.124Z,45.26
2022-09-18T09:59:34.980Z,45.21
2022-09-18T10:02:24.160Z,45.05
2022-09-18T10:04:58.305Z,44.67
2022-09-18T10:07:33.408Z,42.96
2022-09-18T10:10:07.729Z,41.34
2022-09-18T10:12:47.552Z,40.46
2022-09-18T10:15:20.697Z,40.66
2022-09-18T10:17:52.392Z,40.88
2022-09-18T10:20:27.577Z,40.63
2022-09-18T10:22:59.637Z,40.61
2022-09-18T10:25:32.311Z,40.02
2022-09-18T10:28:00.214Z,39.72
2022-09-18T10:30:28.282Z,39.72
2022-09-18T10:32:56.418Z,39.58
2022-09-18T10:35:57.263Z,39.69
2022-09-18T10:38:37.843Z,39.24
2022-09-18T10:41:28.277Z,39.11
2022-09-18T10:44:04.790Z,38.60
2022-09-18T10:46:36.585Z,38.50
2022-09-18T10:49:19.923Z,38.85
2022-09-18T10:51:49.505Z,38.63
2022-09-18T10:54:19.644Z,38.66
2022-09-18T10:56:47.805Z,38.63
2022-09-18T10:59:34.134Z,38.75
2022-09-18T11:02:08.454Z,38.56
2022-09-18T11:04:36.829Z,38.76
2022-09-18T11:07:08.025Z,38.85
2022-09-18T11:09:39.775Z,39.03
2022-09-18T11:12:16.463Z,39.16
2022-09-18T11:14:49.431Z,39.32
2022-09-18T11:17:31.369Z,39.63
2022-09-18T11:20:01.613Z,39.82
2022-09-18T11:22:38.264Z,38.99
2022-09-18T11:25:21.549Z,39.00
2022-09-18T11:27:51.540Z,39.16
2022-09-18T11:30:24.818Z,38.87
2022-09-18T11:32:58.523Z,39.09
2022-09-18T11:35:29.237Z,38.19
2022-09-18T11:38:06.314Z,38.55
2022-09-18T11:40:45.123Z,38.38
2022-09-18T11:43:17.596Z,38.25
2022-09-18T11:45:53.062Z,38.05
2022-09-18T11:48:31.292Z,38.31
2022-09-18T11:51:02.780Z,38.61
2022-09-18T11:53:39.549Z,38.88
2022-09-18T11:56:13.885Z,38.79
2022-09-18T11:58:46.030Z,38.33
2022-09-18T12:01:24.824Z,37.17
2022-09-18T12:03:59.052Z,37.82
2022-09-18T12:06:36.325Z,37.60
2022-09-18T12:09:14.712Z,37.61
2022-09-18T12:11:50.210Z,37.02
2022-09-18T12:14:22.992Z,37.54
2022-09-18T12:17:00.255Z,37.74
2022-09-18T12:19:38.083Z,37.72
2022-09-18T12:22:12.643Z,36.84
2022-09-18T12:24:42.230Z,37.21
2022-09-18T12:27:27.679Z,37.30
2022-09-18T12:30:07.875Z,37.50
2022-09-18T12:32:52.243Z,37.36
2022-09-18T12:35:33.510Z,36.57
2022-09-18T12:38:13.816Z,35.87
2022-09-18T12:41:01.044Z,35.96
2022-09-18T12:43:45.048Z,36.17
2022-09-18T12:46:27.659Z,36.22
2022-09-18T12:49:11.738Z,35.41
2022-09-18T12:51:44.698Z,34.88
2022-09-18T12:54:32.220Z,35.48
2022-09-18T12:57:21.303Z,35.83
2022-09-18T12:59:57.124Z,36.03
2022-09-18T13:02:33.344Z,36.07
2022-09-18T13:05:05.692Z,36.29
2022-09-18T13:07:37.993Z,36.48
2022-09-18T13:10:17.321Z,36.43
2022-09-18T13:12:54.163Z,36.07
2022-09-18T13:15:27.330Z,35.72
2022-09-18T13:18:05.164Z,35.59
2022-09-18T13:20:39.791Z,35.47
2022-09-18T13:23:17.401Z,35.02
2022-09-18T13:25:49.304Z,35.67
2022-09-18T13:28:21.399Z,35.85
2022-09-18T13:31:12.435Z,36.01
2022-09-18T13:33:41.235Z,35.79
2022-09-18T13:36:09.493Z,35.50
2022-09-18T13:38:48.808Z,34.85
2022-09-18T13:41:17.299Z,35.15
2022-09-18T13:43:54.067Z,35.21
2022-09-18T13:46:54.861Z,33.86
2022-09-18T13:49:30.914Z,34.16
2022-09-18T13:52:43.122Z,35.11
2022-09-18T13:55:38.815Z,35.48
2022-09-18T13:58:39.233Z,35.69
2022-09-18T14:01:12.877Z,34.42
2022-09-18T14:03:43.135Z,34.17
2022-09-18T14:06:46.326Z,35.24
2022-09-18T14:09:49.517Z,34.90
2022-09-18T14:12:19.625Z,33.92
2022-09-18T14:15:09.324Z,32.87
2022-09-18T14:17:42.141Z,33.68
2022-09-18T14:20:21.895Z,32.04
2022-09-18T14:22:51.567Z,32.31
2022-09-18T14:25:49.915Z,33.57
2022-09-18T14:28:21.491Z,33.21
2022-09-18T14:31:13.027Z,32.35
2022-09-18T14:33:47.358Z,31.12
2022-09-18T14:36:15.493Z,32.17
2022-09-18T14:38:44.891Z,32.07
2022-09-18T14:41:20.681Z,30.15
2022-09-18T14:43:52.027Z,29.53
2022-09-18T14:46:23.023Z,30.37
2022-09-18T14:48:51.567Z,30.63
2022-09-18T14:51:23.226Z,31.02
2022-09-18T14:53:54.082Z,31.74
2022-09-18T14:56:30.504Z,32.25
2022-09-18T14:59:01.855Z,32.66
2022-09-18T15:01:32.963Z,33.00
2022-09-18T15:04:03.315Z,33.65
2022-09-18T15:06:36.323Z,34.23
2022-09-18T15:09:07.127Z,34.46
2022-09-18T15:11:58.444Z,34.46
2022-09-18T15:14:31.140Z,34.31
2022-09-18T15:17:00.434Z,34.37
2022-09-18T15:19:30.845Z,34.39
2022-09-18T15:22:01.013Z,34.55
2022-09-18T15:24:30.811Z,34.30
2022-09-18T15:27:02.946Z,34.17
2022-09-18T15:29:40.852Z,35.85
2022-09-18T15:32:09.375Z,33.86
2022-09-18T15:34:46.383Z,32.53
2022-09-18T15:37:21.163Z,31.92
2022-09-18T15:39:53.003Z,30.34
2022-09-18T15:42:29.858Z,30.20
2022-09-18T15:45:30.624Z,30.69
2022-09-18T15:48:00.746Z,31.63
2022-09-18T15:50:40.084Z,31.86
2022-09-18T15:53:29.565Z,32.29
2022-09-18T15:56:06.534Z,32.85
2022-09-18T15:58:59.283Z,33.46
2022-09-18T16:01:30.936Z,33.43
2022-09-18T16:04:18.219Z,33.81
2022-09-18T16:06:55.547Z,34.09
2022-09-18T16:09:40.763Z,33.87
2022-09-18T16:12:35.327Z,33.33
2022-09-18T16:15:20.198Z,32.76
2022-09-18T16:18:21.829Z,31.52
2022-09-18T16:21:04.537Z,31.57
2022-09-18T16:23:34.969Z,31.73
2022-09-18T16:26:08.922Z,32.23
2022-09-18T16:28:41.938Z,32.41
2022-09-18T16:31:13.257Z,32.83
2022-09-18T16:33:51.221Z,33.32
2022-09-18T16:36:27.595Z,33.47
2022-09-18T16:38:55.876Z,32.78
2022-09-18T16:41:25.268Z,33.00
2022-09-18T16:43:54.470Z,32.91
2022-09-18T16:46:29.600Z,32.97
2022-09-18T16:48:58.312Z,32.61
2022-09-18T16:51:26.333Z,32.62
2022-09-18T16:53:54.413Z,32.68
2022-09-18T16:56:27.545Z,32.71
2022-09-18T16:58:58.068Z,32.44
2022-09-18T17:01:39.604Z,32.43
2022-09-18T17:04:18.449Z,32.92
2022-09-18T17:06:46.649Z,33.13
2022-09-18T17:09:15.222Z,32.59
2022-09-18T17:11:44.835Z,32.55
2022-09-18T17:14:13.460Z,32.67
2022-09-18T17:16:45.023Z,33.30
2022-09-18T17:19:14.219Z,34.43
2022-09-18T17:21:44.093Z,34.33
2022-09-18T17:24:13.469Z,33.94
2022-09-18T17:26:42.782Z,33.10
2022-09-18T17:32:00.151Z,32.21
2022-09-18T17:34:34.015Z,31.95
2022-09-18T17:37:02.103Z,32.28
2022-09-18T17:39:31.428Z,32.25
2022-09-18T17:42:01.206Z,31.42
2022-09-18T17:44:29.596Z,30.91
2022-09-18T17:47:00.291Z,30.91
2022-09-18T17:49:31.294Z,31.15
2022-09-18T17:51:59.948Z,29.56
2022-09-18T17:54:29.405Z,29.71
2022-09-18T17:56:57.612Z,29.64
2022-09-18T17:59:25.702Z,30.38
2022-09-18T18:01:53.776Z,30.72
2022-09-18T18:04:23.924Z,30.78
2022-09-18T18:06:52.147Z,31.43
2022-09-18T18:09:20.297Z,31.64
2022-09-18T18:11:49.055Z,31.65
2022-09-18T18:14:17.560Z,32.09
2022-09-18T18:16:49.784Z,32.54
2022-09-18T18:19:20.283Z,33.23
2022-09-18T18:21:49.821Z,33.24
2022-09-18T18:24:19.002Z,33.77
2022-09-18T18:26:48.270Z,34.18
2022-09-18T18:29:21.621Z,35.08
2022-09-18T18:31:50.724Z,35.45
2022-09-18T18:34:21.179Z,36.03
2022-09-18T18:36:52.658Z,36.45
2022-09-18T18:39:21.959Z,36.79
2022-09-18T18:41:50.671Z,37.09
2022-09-18T18:44:19.141Z,37.45
2022-09-18T18:46:47.296Z,37.68
2022-09-18T18:49:15.552Z,38.06
2022-09-18T18:51:47.607Z,38.53
2022-09-18T18:54:19.503Z,38.79
2022-09-18T18:56:47.887Z,38.94
2022-09-18T18:59:19.781Z,39.45
2022-09-18T19:01:48.641Z,39.76
2022-09-18T19:04:19.090Z,40.08
2022-09-18T19:06:48.937Z,40.26
2022-09-18T19:09:20.913Z,40.71
2022-09-18T19:11:52.413Z,40.54
2022-09-18T19:14:21.914Z,40.82
2022-09-18T19:16:50.904Z,41.08
2022-09-18T19:19:20.875Z,41.40
2022-09-18T19:21:49.537Z,41.77
2022-09-18T19:24:19.717Z,42.13
2022-09-18T19:26:48.804Z,42.29
2022-09-18T19:29:18.801Z,42.59
2022-09-18T19:31:49.403Z,42.72
2022-09-18T19:34:19.540Z,43.18
2022-09-18T19:36:50.324Z,43.17
2022-09-18T19:39:24.087Z,43.31
2022-09-18T19:41:56.478Z,43.59
2022-09-18T19:44:31.434Z,43.76
2022-09-18T19:47:01.595Z,44.10
2022-09-18T19:49:33.058Z,44.06
2022-09-18T19:52:02.120Z,44.47
2022-09-18T19:54:31.838Z,44.83
2022-09-18T19:57:00.237Z,45.06
2022-09-18T19:59:28.175Z,45.44
2022-09-18T20:01:56.548Z,45.58
2022-09-18T20:04:24.568Z,45.76
2022-09-18T20:06:52.535Z,46.16
2022-09-18T20:09:20.710Z,46.61
2022-09-18T20:11:50.298Z,46.60
2022-09-18T20:14:18.422Z,46.64
2022-09-18T20:16:46.363Z,46.77
2022-09-18T20:19:14.537Z,47.11
2022-09-18T20:21:42.609Z,47.40
2022-09-18T20:24:10.697Z,47.72
2022-09-18T20:26:38.709Z,47.99
2022-09-18T20:29:08.163Z,48.31
2022-09-18T20:31:37.204Z,48.64
2022-09-18T20:34:06.029Z,48.63
2022-09-18T20:36:34.211Z,48.68
2022-09-18T20:39:02.546Z,48.88
2022-09-18T20:41:31.088Z,48.87
2022-09-18T20:44:01.242Z,48.63
2022-09-18T20:46:35.133Z,48.65
2022-09-18T20:49:06.505Z,48.80
2022-09-18T20:51:36.055Z,48.96
2022-09-18T20:54:07.017Z,49.05
2022-09-18T20:56:38.135Z,49.06
2022-09-18T20:59:07.666Z,49.45
2022-09-18T21:01:38.277Z,49.27
2022-09-18T21:04:07.549Z,49.37
2022-09-18T21:06:36.026Z,49.54
2022-09-18T21:09:07.470Z,49.34
2022-09-18T21:11:42.340Z,49.50
2022-09-18T21:14:13.433Z,49.42
2022-09-18T21:16:44.018Z,49.47
2022-09-18T21:19:13.366Z,49.38
2022-09-18T21:21:42.039Z,49.33
2022-09-18T21:24:10.344Z,49.36
2022-09-18T21:26:40.384Z,49.35
2022-09-18T21:29:12.773Z,49.18
2022-09-18T21:31:43.460Z,49.35
2022-09-18T21:34:13.812Z,49.62
2022-09-18T21:36:43.411Z,49.44
2022-09-18T21:39:12.879Z,49.56
2022-09-18T21:41:45.962Z,49.56
2022-09-18T21:44:15.701Z,49.55
2022-09-18T21:46:46.355Z,49.86
2022-09-18T21:49:16.302Z,49.73
2022-09-18T21:51:44.839Z,49.67
2022-09-18T21:54:15.580Z,49.52
2022-09-18T21:56:44.182Z,49.73
2022-09-18T21:59:12.861Z,49.37
2022-09-18T22:01:42.892Z,49.57
2022-09-18T22:04:13.433Z,49.44
2022-09-18T22:06:44.131Z,49.55
2022-09-18T22:09:14.075Z,49.56
2022-09-18T22:11:42.935Z,49.40
2022-09-18T22:14:14.033Z,49.59
2022-09-18T22:16:43.112Z,49.51
2022-09-18T22:19:13.003Z,49.67
2022-09-18T22:21:44.157Z,49.28
2022-09-18T22:24:15.223Z,49.65
2022-09-18T22:26:45.429Z,49.87
2022-09-18T22:29:16.961Z,49.92
2022-09-18T22:31:47.230Z,50.02
2022-09-18T22:34:20.275Z,50.03
2022-09-18T22:36:49.139Z,50.30
2022-09-18T22:39:18.853Z,50.34
2022-09-18T22:41:47.131Z,50.88
2022-09-18T22:44:16.329Z,50.52
2022-09-18T22:46:46.805Z,50.74
2022-09-18T22:49:18.404Z,50.86
2022-09-18T22:51:47.487Z,50.85
2022-09-18T22:54:16.925Z,50.98
2022-09-18T22:56:52.298Z,51.17
2022-09-18T22:59:22.562Z,51.17
2022-09-18T23:01:52.804Z,51.51
2022-09-18T23:04:24.061Z,51.49
2022-09-18T23:06:52.645Z,51.52
2022-09-18T23:09:21.528Z,51.52
2022-09-18T23:11:52.056Z,51.58
2022-09-18T23:14:22.286Z,51.65
2022-09-18T23:16:51.489Z,51.84
2022-09-18T23:19:22.784Z,51.62
2022-09-18T23:21:51.961Z,51.49
2022-09-18T23:24:20.152Z,51.75
2022-09-18T23:26:50.186Z,51.62
2022-09-18T23:29:21.003Z,51.55
2022-09-18T23:31:53.027Z,51.56
2022-09-18T23:34:24.859Z,51.69
2022-09-18T23:36:54.691Z,51.66
2022-09-18T23:39:24.572Z,51.74
2022-09-18T23:41:53.360Z,51.87
2022-09-18T23:44:23.276Z,51.73
2022-09-18T23:46:51.688Z,51.74
2022-09-18T23:49:23.176Z,51.69
2022-09-18T23:51:54.474Z,51.61
2022-09-18T23:54:24.980Z,51.80
2022-09-18T23:56:53.703Z,52.04
2022-09-18T23:59:23.516Z,51.80
